Kimberly Turecamo — WDC6838 — position and weather

sailwx.info

Track history (hours):
 
Tides and Currents Weather Stations Pressure Air Temp Water Temp Dewpoint Dewpoint Depression Visibility Wind Speed Wind Dir Waves Ship Positions

Kimberly Turecamo

Owner: Moran Towing Corporation, New Canaan, CT. More information available from US FCC via Universal Licensing System and Coast Guard Vessel Documentation Center.

Last reported at 2017-Mar-26 05:33 UTC. Time now 2017-Mar-26 05:33 UTC.
Position N 40°38' W 074°08'.

Length 31 m; draft 5 m.

Type: Tug. MMSI: 367061980.

Date/timePositionNaut miles runAvg speedWind from/ knotsBaromVisibWave heightAir tempDewpointWater temp
2017-Mar-26 05:33N 40°38' W 074°08'0 0.0
2017-Mar-26 04:33N 40°38' W 074°08'0 0.0
2017-Mar-26 03:33N 40°38' W 074°08'0 0.0
2017-Mar-26 02:33N 40°38' W 074°08'4 4.0
2017-Mar-26 01:33N 40°36' W 074°12'4 2.9
2017-Mar-26 00:06N 40°33' W 074°15'0 0.3
2017-Mar-25 23:23N 40°33' W 074°15'6 7.2
2017-Mar-25 22:33N 40°38' W 074°12'3 3.0
2017-Mar-25 21:32N 40°38' W 074°08'0 0.0
2017-Mar-25 20:33N 40°38' W 074°08'0 0.0
2017-Mar-25 19:33N 40°38' W 074°08'0 0.0
2017-Mar-25 18:14N 40°38' W 074°08'0 0.0
2017-Mar-25 17:26N 40°38' W 074°08'0 0.0
2017-Mar-25 14:13N 40°38' W 074°08'0 0.0
2017-Mar-25 12:26N 40°38' W 074°08'0 0.0
2017-Mar-25 11:07N 40°38' W 074°08'3 4.5
2017-Mar-25 10:33N 40°41' W 074°08'0 0.2
2017-Mar-25 09:33N 40°41' W 074°08'3 2.5
2017-Mar-25 08:33N 40°39' W 074°07'0 0.3
2017-Mar-25 07:33N 40°39' W 074°07'1 0.7
2017-Mar-25 06:33N 40°38' W 074°08'0 0.0
2017-Mar-25 04:18N 40°38' W 074°08'0 0.0
2017-Mar-25 03:15N 40°38' W 074°08'0 0.0
2017-Mar-25 02:33N 40°38' W 074°08'0 0.0
2017-Mar-25 01:33N 40°38' W 074°08'0 0.0
2017-Mar-25 00:33N 40°38' W 074°08'0 0.0
2017-Mar-24 23:33N 40°38' W 074°08'3 3.3
2017-Mar-24 22:33N 40°38' W 074°12'3 2.7
2017-Mar-24 21:33N 40°39' W 074°09'4 4.1
2017-Mar-24 20:33N 40°37' W 074°04'3 3.4
2017-Mar-24 19:33N 40°38' W 074°08'0 0.0
2017-Mar-24 18:33N 40°38' W 074°08'4 3.9
2017-Mar-24 17:33N 40°39' W 074°03'0 0.0
2017-Mar-24 16:33N 40°39' W 074°03'0 0.1
2017-Mar-24 15:33N 40°39' W 074°03'4 3.9
2017-Mar-24 14:33N 40°38' W 074°08'0 0.0
2017-Mar-24 13:22N 40°38' W 074°08'0 0.0
2017-Mar-24 12:31N 40°38' W 074°08'0 0.0
2017-Mar-24 11:25N 40°38' W 074°08'0 0.0
2017-Mar-24 10:28N 40°38' W 074°08'0 0.0
2017-Mar-24 09:31N 40°38' W 074°08'0 0.0
2017-Mar-24 08:31N 40°38' W 074°08'0 0.0
2017-Mar-24 07:31N 40°38' W 074°08'0 0.0
2017-Mar-24 06:25N 40°38' W 074°08'0 0.0
2017-Mar-24 05:25N 40°38' W 074°08'0 0.0
2017-Mar-24 04:31N 40°38' W 074°08'0 0.0
2017-Mar-24 03:33N 40°38' W 074°08'2 1.7
2017-Mar-24 02:33N 40°40' W 074°09'2 1.7
2017-Mar-24 01:33N 40°38' W 074°08'0 0.0
2017-Mar-24 00:33N 40°38' W 074°08'0 0.0
2017-Mar-23 23:33N 40°38' W 074°08'0 0.0
2017-Mar-23 22:33N 40°38' W 074°08'0 0.0
2017-Mar-23 21:33N 40°38' W 074°08'0 0.0
2017-Mar-23 20:33N 40°38' W 074°08'0 0.0
2017-Mar-23 19:33N 40°38' W 074°08'0 0.0
2017-Mar-23 18:32N 40°38' W 074°08'0 0.0
2017-Mar-23 17:33N 40°38' W 074°08'0 0.0
2017-Mar-23 16:33N 40°38' W 074°08'0 0.0
2017-Mar-23 15:33N 40°38' W 074°08'0 0.0
2017-Mar-23 14:33N 40°38' W 074°08'3 3.2
2017-Mar-23 13:33N 40°38' W 074°12'1 1.4
2017-Mar-23 12:33N 40°39' W 074°10'5 5.5
2017-Mar-23 11:33N 40°37' W 074°03'0 0.1
2017-Mar-23 10:30N 40°37' W 074°03'2 2.6
2017-Mar-23 09:33N 40°39' W 074°06'1 1.0
2017-Mar-23 08:06N 40°38' W 074°08'0 0.0
2017-Mar-23 07:06N 40°38' W 074°08'0 0.0
2017-Mar-23 03:33N 40°38' W 074°08'3 3.5
2017-Mar-23 02:33N 40°42' W 074°09'4 3.5
2017-Mar-23 01:34N 40°39' W 074°06'5 4.7
2017-Mar-23 00:33N 40°41' W 074°01'0 0.2
2017-Mar-22 23:33N 40°41' W 074°01'0 0.1
2017-Mar-22 22:33N 40°41' W 074°01'0 0.0
2017-Mar-22 21:34N 40°41' W 074°01'6 6.3
2017-Mar-22 20:33N 40°39' W 074°09'1 0.5
2017-Mar-22 19:33N 40°40' W 074°08'1 1.4
2017-Mar-22 18:33N 40°38' W 074°08'0 0.0
2017-Mar-22 17:28N 40°38' W 074°08'0 0.0
2017-Mar-22 16:31N 40°38' W 074°08'0 0.0
2017-Mar-22 15:29N 40°38' W 074°08'0 0.0
2017-Mar-22 14:21N 40°38' W 074°08'0 0.0
2017-Mar-22 13:26N 40°38' W 074°08'0 0.0
2017-Mar-22 12:33N 40°38' W 074°08'1 1.4
2017-Mar-22 11:33N 40°40' W 074°09'1 1.1
2017-Mar-22 10:33N 40°39' W 074°08'0 0.2
2017-Mar-22 09:33N 40°38' W 074°08'4 1.9
2017-Mar-22 07:29N 40°37' W 074°12'4 4.1
2017-Mar-22 06:32N 40°39' W 074°08'0 0.2
2017-Mar-22 05:33N 40°38' W 074°08'0 0.0
2017-Mar-22 04:33N 40°38' W 074°08'0 0.0
2017-Mar-22 03:33N 40°38' W 074°08'0 0.0
2017-Mar-22 02:33N 40°38' W 074°08'0 0.0
2017-Mar-22 01:33N 40°38' W 074°08'0 0.0
2017-Mar-22 00:33N 40°38' W 074°08'0 0.0
2017-Mar-21 23:33N 40°38' W 074°08'0 0.0
2017-Mar-21 22:32N 40°38' W 074°08'0 0.0
2017-Mar-21 21:33N 40°38' W 074°08'2 1.6
2017-Mar-21 20:33N 40°40' W 074°08'1 1.5
2017-Mar-21 19:32N 40°39' W 074°08'0 0.1
2017-Mar-21 18:33N 40°38' W 074°08'0 0.0
2017-Mar-21 17:33N 40°38' W 074°08'6 5.7
2017-Mar-21 16:33N 40°41' W 074°01'2 1.5
2017-Mar-21 15:33N 40°40' W 074°03'4 4.0
2017-Mar-21 14:31N 40°38' W 074°08'0 0.0
2017-Mar-21 13:22N 40°38' W 074°08'0 0.0
2017-Mar-21 12:28N 40°38' W 074°08'0 0.0
2017-Mar-21 11:34N 40°38' W 074°08'0 0.0
2017-Mar-21 10:33N 40°38' W 074°08'0 0.0
2017-Mar-21 09:33N 40°38' W 074°08'0 0.0
2017-Mar-21 08:33N 40°38' W 074°08'0 0.0
2017-Mar-21 07:33N 40°38' W 074°08'0 0.0
2017-Mar-21 06:33N 40°38' W 074°08'0 0.0
2017-Mar-21 05:33N 40°38' W 074°08'0 0.0
2017-Mar-21 04:33N 40°38' W 074°08'0 0.0
2017-Mar-21 03:33N 40°38' W 074°08'0 0.0
2017-Mar-21 02:33N 40°38' W 074°08'0 0.0
2017-Mar-21 01:33N 40°38' W 074°08'6 6.4
2017-Mar-21 00:33N 40°41' W 074°00'3 3.5
2017-Mar-20 23:34N 40°39' W 074°04'5 4.6
2017-Mar-20 22:33N 40°42' W 074°09'3 3.2
2017-Mar-20 21:33N 40°39' W 074°09'1 0.7
2017-Mar-20 20:33N 40°38' W 074°08'3 3.3
2017-Mar-20 19:33N 40°38' W 074°12'3 2.6
2017-Mar-20 18:30N 40°38' W 074°09'4 4.2
2017-Mar-20 17:34N 40°38' W 074°04'3 3.1
2017-Mar-20 16:33N 40°39' W 074°08'0 0.2
2017-Mar-20 15:33N 40°38' W 074°08'0 0.0
2017-Mar-20 14:33N 40°38' W 074°08'0 0.0
2017-Mar-20 13:33N 40°38' W 074°08'0 0.0
2017-Mar-20 12:33N 40°38' W 074°08'0 0.0
2017-Mar-20 11:33N 40°38' W 074°08'0 0.0
2017-Mar-20 10:33N 40°38' W 074°08'0 0.0
2017-Mar-20 09:33N 40°38' W 074°08'1 1.0
2017-Mar-20 08:33N 40°39' W 074°09'6 1.8
2017-Mar-20 05:24N 40°34' W 074°13'6 6.9
2017-Mar-20 04:31N 40°38' W 074°08'0 0.0
2017-Mar-20 03:31N 40°38' W 074°08'0 0.0
2017-Mar-20 02:31N 40°38' W 074°08'0 0.0
2017-Mar-20 01:31N 40°38' W 074°08'0 0.0
2017-Mar-20 00:31N 40°38' W 074°08'0 0.0
2017-Mar-19 23:31N 40°38' W 074°08'0 0.0
2017-Mar-19 22:31N 40°38' W 074°08'0 0.0
2017-Mar-19 21:31N 40°38' W 074°08'0 0.0
2017-Mar-19 20:31N 40°38' W 074°08'2 2.4
2017-Mar-19 19:33N 40°41' W 074°08'0 0.4
2017-Mar-19 18:33N 40°41' W 074°08'3 2.5
2017-Mar-19 17:31N 40°38' W 074°08'0 0.0
2017-Mar-19 16:31N 40°38' W 074°08'0 0.0
2017-Mar-19 15:31N 40°38' W 074°08'0 0.0
2017-Mar-19 14:31N 40°38' W 074°08'0 0.0
2017-Mar-19 13:31N 40°38' W 074°08'0 0.0
2017-Mar-19 12:31N 40°38' W 074°08'0 0.0
2017-Mar-19 11:31N 40°38' W 074°08'0 0.0
2017-Mar-19 10:31N 40°38' W 074°08'3 3.2
2017-Mar-19 09:33N 40°40' W 074°04'0 0.3
2017-Mar-19 08:33N 40°40' W 074°05'0 0.4
2017-Mar-19 07:32N 40°40' W 074°04'2 1.7
2017-Mar-19 06:28N 40°39' W 074°06'1 1.4
2017-Mar-19 05:31N 40°38' W 074°08'0 0.0
2017-Mar-19 04:31N 40°38' W 074°08'0 0.0
2017-Mar-19 03:31N 40°38' W 074°08'0 0.0
2017-Mar-19 02:33N 40°38' W 074°08'0 0.0
2017-Mar-19 01:33N 40°38' W 074°08'0 0.0
2017-Mar-19 00:33N 40°38' W 074°08'0 0.0
2017-Mar-18 23:33N 40°38' W 074°08'0 0.0
2017-Mar-18 22:33N 40°38' W 074°08'0 0.0
2017-Mar-18 21:33N 40°38' W 074°08'0 0.0
2017-Mar-18 20:33N 40°38' W 074°08'0 0.0
2017-Mar-18 19:33N 40°38' W 074°08'0 0.0
2017-Mar-18 18:33N 40°38' W 074°08'0 0.0
2017-Mar-18 17:33N 40°38' W 074°08'1 1.0
2017-Mar-18 16:33N 40°39' W 074°09'4 3.9
2017-Mar-18 15:34N 40°38' W 074°04'3 2.8
2017-Mar-18 14:32N 40°38' W 074°08'0 0.0
2017-Mar-18 13:31N 40°38' W 074°08'0 0.0
2017-Mar-18 12:31N 40°38' W 074°08'0 0.0
2017-Mar-18 11:31N 40°38' W 074°08'0 0.0
2017-Mar-18 10:31N 40°38' W 074°08'0 0.0
2017-Mar-18 09:28N 40°38' W 074°08'2 1.8
2017-Mar-18 08:32N 40°40' W 074°09'2 1.7
2017-Mar-18 07:32N 40°38' W 074°08'0 0.0
2017-Mar-18 06:32N 40°38' W 074°08'0 0.0
2017-Mar-18 05:32N 40°38' W 074°08'0 0.0
2017-Mar-18 04:32N 40°38' W 074°08'0 0.0
2017-Mar-18 03:32N 40°38' W 074°08'1 0.8
2017-Mar-18 02:33N 40°39' W 074°07'2 1.8
2017-Mar-18 01:33N 40°40' W 074°09'0 0.0
2017-Mar-18 00:33N 40°40' W 074°09'1 1.5
2017-Mar-17 23:33N 40°38' W 074°08'0 0.0
2017-Mar-17 22:33N 40°38' W 074°08'0 0.0
2017-Mar-17 21:33N 40°38' W 074°08'0 0.0
2017-Mar-17 20:33N 40°38' W 074°08'0 0.0
2017-Mar-17 19:33N 40°38' W 074°08'2 1.6
2017-Mar-17 18:33N 40°39' W 074°10'1 0.9
2017-Mar-17 17:33N 40°39' W 074°09'1 0.7
2017-Mar-17 16:33N 40°38' W 074°08'0 0.0
2017-Mar-17 15:33N 40°38' W 074°08'0 0.0
2017-Mar-17 14:33N 40°38' W 074°08'0 0.0
2017-Mar-17 13:33N 40°38' W 074°08'0 0.0
2017-Mar-17 12:33N 40°38' W 074°08'3 2.9
2017-Mar-17 11:33N 40°40' W 074°05'2 2.2
2017-Mar-17 10:33N 40°38' W 074°03'3 3.1
2017-Mar-17 09:33N 40°39' W 074°07'0 0.3
2017-Mar-17 08:33N 40°38' W 074°08'0 0.0
2017-Mar-17 07:33N 40°38' W 074°08'0 0.0
2017-Mar-17 06:33N 40°38' W 074°08'0 0.0
2017-Mar-17 05:33N 40°38' W 074°08'0 0.0
2017-Mar-17 04:33N 40°38' W 074°08'0 0.0
2017-Mar-17 03:33N 40°38' W 074°08'0 0.0
2017-Mar-17 02:33N 40°38' W 074°08'0 0.0
2017-Mar-17 01:33N 40°38' W 074°08'0 0.0
2017-Mar-17 00:33N 40°38' W 074°08'0 0.0
2017-Mar-16 23:33N 40°38' W 074°08'0 0.2
2017-Mar-16 22:34N 40°39' W 074°08'1 0.6
2017-Mar-16 21:29N 40°39' W 074°07'3 3.0
2017-Mar-16 20:33N 40°38' W 074°03'3 3.4
2017-Mar-16 19:33N 40°38' W 074°08'0 0.0
2017-Mar-16 18:34N 40°38' W 074°08'0 0.0
2017-Mar-16 17:33N 40°38' W 074°08'0 0.0
2017-Mar-16 16:33N 40°38' W 074°08'0 0.0
2017-Mar-16 15:33N 40°38' W 074°08'0 0.0
2017-Mar-16 14:33N 40°38' W 074°08'0 0.0
2017-Mar-16 13:33N 40°38' W 074°08'0 0.0
2017-Mar-16 12:33N 40°38' W 074°08'0 0.0
2017-Mar-16 11:33N 40°38' W 074°08'0 0.0
2017-Mar-16 10:33N 40°38' W 074°08'0 0.0
2017-Mar-16 09:33N 40°38' W 074°08'0 0.0
2017-Mar-16 08:33N 40°38' W 074°08'0 0.0
2017-Mar-16 07:31N 40°38' W 074°08'0 0.0
2017-Mar-16 06:33N 40°38' W 074°08'  
Track history (hours):
 
Tides and Currents Weather Stations Pressure Air Temp Water Temp Dewpoint Dewpoint Depression Visibility Wind Speed Wind Dir Waves Ship Positions

Kimberly Turecamo

Owner: Moran Towing Corporation, New Canaan, CT. More information available from US FCC via Universal Licensing System and Coast Guard Vessel Documentation Center.

Last reported at 2017-Mar-26 05:33 UTC. Time now 2017-Mar-26 05:33 UTC.
Position N 40°38' W 074°08'.

Length 31 m; draft 5 m.

Type: Tug. MMSI: 367061980.

Date/timePositionNaut miles runAvg speedWind from/ knotsBaromVisibWave heightAir tempDewpointWater temp
2017-Mar-26 05:33N 40°38' W 074°08'0 0.0
2017-Mar-26 04:33N 40°38' W 074°08'0 0.0
2017-Mar-26 03:33N 40°38' W 074°08'0 0.0
2017-Mar-26 02:33N 40°38' W 074°08'4 4.0
2017-Mar-26 01:33N 40°36' W 074°12'4 2.9
2017-Mar-26 00:06N 40°33' W 074°15'0 0.3
2017-Mar-25 23:23N 40°33' W 074°15'6 7.2
2017-Mar-25 22:33N 40°38' W 074°12'3 3.0
2017-Mar-25 21:32N 40°38' W 074°08'0 0.0
2017-Mar-25 20:33N 40°38' W 074°08'0 0.0
2017-Mar-25 19:33N 40°38' W 074°08'0 0.0
2017-Mar-25 18:14N 40°38' W 074°08'0 0.0
2017-Mar-25 17:26N 40°38' W 074°08'0 0.0
2017-Mar-25 14:13N 40°38' W 074°08'0 0.0
2017-Mar-25 12:26N 40°38' W 074°08'0 0.0
2017-Mar-25 11:07N 40°38' W 074°08'3 4.5
2017-Mar-25 10:33N 40°41' W 074°08'0 0.2
2017-Mar-25 09:33N 40°41' W 074°08'3 2.5
2017-Mar-25 08:33N 40°39' W 074°07'0 0.3
2017-Mar-25 07:33N 40°39' W 074°07'1 0.7
2017-Mar-25 06:33N 40°38' W 074°08'0 0.0
2017-Mar-25 04:18N 40°38' W 074°08'0 0.0
2017-Mar-25 03:15N 40°38' W 074°08'0 0.0
2017-Mar-25 02:33N 40°38' W 074°08'0 0.0
2017-Mar-25 01:33N 40°38' W 074°08'0 0.0
2017-Mar-25 00:33N 40°38' W 074°08'0 0.0
2017-Mar-24 23:33N 40°38' W 074°08'3 3.3
2017-Mar-24 22:33N 40°38' W 074°12'3 2.7
2017-Mar-24 21:33N 40°39' W 074°09'4 4.1
2017-Mar-24 20:33N 40°37' W 074°04'3 3.4
2017-Mar-24 19:33N 40°38' W 074°08'0 0.0
2017-Mar-24 18:33N 40°38' W 074°08'4 3.9
2017-Mar-24 17:33N 40°39' W 074°03'0 0.0
2017-Mar-24 16:33N 40°39' W 074°03'0 0.1
2017-Mar-24 15:33N 40°39' W 074°03'4 3.9
2017-Mar-24 14:33N 40°38' W 074°08'0 0.0
2017-Mar-24 13:22N 40°38' W 074°08'0 0.0
2017-Mar-24 12:31N 40°38' W 074°08'0 0.0
2017-Mar-24 11:25N 40°38' W 074°08'0 0.0
2017-Mar-24 10:28N 40°38' W 074°08'0 0.0
2017-Mar-24 09:31N 40°38' W 074°08'0 0.0
2017-Mar-24 08:31N 40°38' W 074°08'0 0.0
2017-Mar-24 07:31N 40°38' W 074°08'0 0.0
2017-Mar-24 06:25N 40°38' W 074°08'0 0.0
2017-Mar-24 05:25N 40°38' W 074°08'0 0.0
2017-Mar-24 04:31N 40°38' W 074°08'0 0.0
2017-Mar-24 03:33N 40°38' W 074°08'2 1.7
2017-Mar-24 02:33N 40°40' W 074°09'2 1.7
2017-Mar-24 01:33N 40°38' W 074°08'0 0.0
2017-Mar-24 00:33N 40°38' W 074°08'0 0.0
2017-Mar-23 23:33N 40°38' W 074°08'0 0.0
2017-Mar-23 22:33N 40°38' W 074°08'0 0.0
2017-Mar-23 21:33N 40°38' W 074°08'0 0.0
2017-Mar-23 20:33N 40°38' W 074°08'0 0.0
2017-Mar-23 19:33N 40°38' W 074°08'0 0.0
2017-Mar-23 18:32N 40°38' W 074°08'0 0.0
2017-Mar-23 17:33N 40°38' W 074°08'0 0.0
2017-Mar-23 16:33N 40°38' W 074°08'0 0.0
2017-Mar-23 15:33N 40°38' W 074°08'0 0.0
2017-Mar-23 14:33N 40°38' W 074°08'3 3.2
2017-Mar-23 13:33N 40°38' W 074°12'1 1.4
2017-Mar-23 12:33N 40°39' W 074°10'5 5.5
2017-Mar-23 11:33N 40°37' W 074°03'0 0.1
2017-Mar-23 10:30N 40°37' W 074°03'2 2.6
2017-Mar-23 09:33N 40°39' W 074°06'1 1.0
2017-Mar-23 08:06N 40°38' W 074°08'0 0.0
2017-Mar-23 07:06N 40°38' W 074°08'0 0.0
2017-Mar-23 03:33N 40°38' W 074°08'3 3.5
2017-Mar-23 02:33N 40°42' W 074°09'4 3.5
2017-Mar-23 01:34N 40°39' W 074°06'5 4.7
2017-Mar-23 00:33N 40°41' W 074°01'0 0.2
2017-Mar-22 23:33N 40°41' W 074°01'0 0.1
2017-Mar-22 22:33N 40°41' W 074°01'0 0.0
2017-Mar-22 21:34N 40°41' W 074°01'6 6.3
2017-Mar-22 20:33N 40°39' W 074°09'1 0.5
2017-Mar-22 19:33N 40°40' W 074°08'1 1.4
2017-Mar-22 18:33N 40°38' W 074°08'0 0.0
2017-Mar-22 17:28N 40°38' W 074°08'0 0.0
2017-Mar-22 16:31N 40°38' W 074°08'0 0.0
2017-Mar-22 15:29N 40°38' W 074°08'0 0.0
2017-Mar-22 14:21N 40°38' W 074°08'0 0.0
2017-Mar-22 13:26N 40°38' W 074°08'0 0.0
2017-Mar-22 12:33N 40°38' W 074°08'1 1.4
2017-Mar-22 11:33N 40°40' W 074°09'1 1.1
2017-Mar-22 10:33N 40°39' W 074°08'0 0.2
2017-Mar-22 09:33N 40°38' W 074°08'4 1.9
2017-Mar-22 07:29N 40°37' W 074°12'4 4.1
2017-Mar-22 06:32N 40°39' W 074°08'0 0.2
2017-Mar-22 05:33N 40°38' W 074°08'0 0.0
2017-Mar-22 04:33N 40°38' W 074°08'0 0.0
2017-Mar-22 03:33N 40°38' W 074°08'0 0.0
2017-Mar-22 02:33N 40°38' W 074°08'0 0.0
2017-Mar-22 01:33N 40°38' W 074°08'0 0.0
2017-Mar-22 00:33N 40°38' W 074°08'0 0.0
2017-Mar-21 23:33N 40°38' W 074°08'0 0.0
2017-Mar-21 22:32N 40°38' W 074°08'0 0.0
2017-Mar-21 21:33N 40°38' W 074°08'2 1.6
2017-Mar-21 20:33N 40°40' W 074°08'1 1.5
2017-Mar-21 19:32N 40°39' W 074°08'0 0.1
2017-Mar-21 18:33N 40°38' W 074°08'0 0.0
2017-Mar-21 17:33N 40°38' W 074°08'6 5.7
2017-Mar-21 16:33N 40°41' W 074°01'2 1.5
2017-Mar-21 15:33N 40°40' W 074°03'4 4.0
2017-Mar-21 14:31N 40°38' W 074°08'0 0.0
2017-Mar-21 13:22N 40°38' W 074°08'0 0.0
2017-Mar-21 12:28N 40°38' W 074°08'0 0.0
2017-Mar-21 11:34N 40°38' W 074°08'0 0.0
2017-Mar-21 10:33N 40°38' W 074°08'0 0.0
2017-Mar-21 09:33N 40°38' W 074°08'0 0.0
2017-Mar-21 08:33N 40°38' W 074°08'0 0.0
2017-Mar-21 07:33N 40°38' W 074°08'0 0.0
2017-Mar-21 06:33N 40°38' W 074°08'0 0.0
2017-Mar-21 05:33N 40°38' W 074°08'0 0.0
2017-Mar-21 04:33N 40°38' W 074°08'0 0.0
2017-Mar-21 03:33N 40°38' W 074°08'0 0.0
2017-Mar-21 02:33N 40°38' W 074°08'0 0.0
2017-Mar-21 01:33N 40°38' W 074°08'6 6.4
2017-Mar-21 00:33N 40°41' W 074°00'3 3.5
2017-Mar-20 23:34N 40°39' W 074°04'5 4.6
2017-Mar-20 22:33N 40°42' W 074°09'3 3.2
2017-Mar-20 21:33N 40°39' W 074°09'1 0.7
2017-Mar-20 20:33N 40°38' W 074°08'3 3.3
2017-Mar-20 19:33N 40°38' W 074°12'3 2.6
2017-Mar-20 18:30N 40°38' W 074°09'4 4.2
2017-Mar-20 17:34N 40°38' W 074°04'3 3.1
2017-Mar-20 16:33N 40°39' W 074°08'0 0.2
2017-Mar-20 15:33N 40°38' W 074°08'0 0.0
2017-Mar-20 14:33N 40°38' W 074°08'0 0.0
2017-Mar-20 13:33N 40°38' W 074°08'0 0.0
2017-Mar-20 12:33N 40°38' W 074°08'0 0.0
2017-Mar-20 11:33N 40°38' W 074°08'0 0.0
2017-Mar-20 10:33N 40°38' W 074°08'0 0.0
2017-Mar-20 09:33N 40°38' W 074°08'1 1.0
2017-Mar-20 08:33N 40°39' W 074°09'6 1.8
2017-Mar-20 05:24N 40°34' W 074°13'6 6.9
2017-Mar-20 04:31N 40°38' W 074°08'0 0.0
2017-Mar-20 03:31N 40°38' W 074°08'0 0.0
2017-Mar-20 02:31N 40°38' W 074°08'0 0.0
2017-Mar-20 01:31N 40°38' W 074°08'0 0.0
2017-Mar-20 00:31N 40°38' W 074°08'0 0.0
2017-Mar-19 23:31N 40°38' W 074°08'0 0.0
2017-Mar-19 22:31N 40°38' W 074°08'0 0.0
2017-Mar-19 21:31N 40°38' W 074°08'0 0.0
2017-Mar-19 20:31N 40°38' W 074°08'2 2.4
2017-Mar-19 19:33N 40°41' W 074°08'0 0.4
2017-Mar-19 18:33N 40°41' W 074°08'3 2.5
2017-Mar-19 17:31N 40°38' W 074°08'0 0.0
2017-Mar-19 16:31N 40°38' W 074°08'0 0.0
2017-Mar-19 15:31N 40°38' W 074°08'0 0.0
2017-Mar-19 14:31N 40°38' W 074°08'0 0.0
2017-Mar-19 13:31N 40°38' W 074°08'0 0.0
2017-Mar-19 12:31N 40°38' W 074°08'0 0.0
2017-Mar-19 11:31N 40°38' W 074°08'0 0.0
2017-Mar-19 10:31N 40°38' W 074°08'3 3.2
2017-Mar-19 09:33N 40°40' W 074°04'0 0.3
2017-Mar-19 08:33N 40°40' W 074°05'0 0.4
2017-Mar-19 07:32N 40°40' W 074°04'2 1.7
2017-Mar-19 06:28N 40°39' W 074°06'1 1.4
2017-Mar-19 05:31N 40°38' W 074°08'0 0.0
2017-Mar-19 04:31N 40°38' W 074°08'0 0.0
2017-Mar-19 03:31N 40°38' W 074°08'0 0.0
2017-Mar-19 02:33N 40°38' W 074°08'0 0.0
2017-Mar-19 01:33N 40°38' W 074°08'0 0.0
2017-Mar-19 00:33N 40°38' W 074°08'0 0.0
2017-Mar-18 23:33N 40°38' W 074°08'0 0.0
2017-Mar-18 22:33N 40°38' W 074°08'0 0.0
2017-Mar-18 21:33N 40°38' W 074°08'0 0.0
2017-Mar-18 20:33N 40°38' W 074°08'0 0.0
2017-Mar-18 19:33N 40°38' W 074°08'0 0.0
2017-Mar-18 18:33N 40°38' W 074°08'0 0.0
2017-Mar-18 17:33N 40°38' W 074°08'1 1.0
2017-Mar-18 16:33N 40°39' W 074°09'4 3.9
2017-Mar-18 15:34N 40°38' W 074°04'3 2.8
2017-Mar-18 14:32N 40°38' W 074°08'0 0.0
2017-Mar-18 13:31N 40°38' W 074°08'0 0.0
2017-Mar-18 12:31N 40°38' W 074°08'0 0.0
2017-Mar-18 11:31N 40°38' W 074°08'0 0.0
2017-Mar-18 10:31N 40°38' W 074°08'0 0.0
2017-Mar-18 09:28N 40°38' W 074°08'2 1.8
2017-Mar-18 08:32N 40°40' W 074°09'2 1.7
2017-Mar-18 07:32N 40°38' W 074°08'0 0.0
2017-Mar-18 06:32N 40°38' W 074°08'0 0.0
2017-Mar-18 05:32N 40°38' W 074°08'0 0.0
2017-Mar-18 04:32N 40°38' W 074°08'0 0.0
2017-Mar-18 03:32N 40°38' W 074°08'1 0.8
2017-Mar-18 02:33N 40°39' W 074°07'2 1.8
2017-Mar-18 01:33N 40°40' W 074°09'0 0.0
2017-Mar-18 00:33N 40°40' W 074°09'1 1.5
2017-Mar-17 23:33N 40°38' W 074°08'0 0.0
2017-Mar-17 22:33N 40°38' W 074°08'0 0.0
2017-Mar-17 21:33N 40°38' W 074°08'0 0.0
2017-Mar-17 20:33N 40°38' W 074°08'0 0.0
2017-Mar-17 19:33N 40°38' W 074°08'2 1.6
2017-Mar-17 18:33N 40°39' W 074°10'1 0.9
2017-Mar-17 17:33N 40°39' W 074°09'1 0.7
2017-Mar-17 16:33N 40°38' W 074°08'0 0.0
2017-Mar-17 15:33N 40°38' W 074°08'0 0.0
2017-Mar-17 14:33N 40°38' W 074°08'0 0.0
2017-Mar-17 13:33N 40°38' W 074°08'0 0.0
2017-Mar-17 12:33N 40°38' W 074°08'3 2.9
2017-Mar-17 11:33N 40°40' W 074°05'2 2.2
2017-Mar-17 10:33N 40°38' W 074°03'3 3.1
2017-Mar-17 09:33N 40°39' W 074°07'0 0.3
2017-Mar-17 08:33N 40°38' W 074°08'0 0.0
2017-Mar-17 07:33N 40°38' W 074°08'0 0.0
2017-Mar-17 06:33N 40°38' W 074°08'0 0.0
2017-Mar-17 05:33N 40°38' W 074°08'0 0.0
2017-Mar-17 04:33N 40°38' W 074°08'0 0.0
2017-Mar-17 03:33N 40°38' W 074°08'0 0.0
2017-Mar-17 02:33N 40°38' W 074°08'0 0.0
2017-Mar-17 01:33N 40°38' W 074°08'0 0.0
2017-Mar-17 00:33N 40°38' W 074°08'0 0.0
2017-Mar-16 23:33N 40°38' W 074°08'0 0.2
2017-Mar-16 22:34N 40°39' W 074°08'1 0.6
2017-Mar-16 21:29N 40°39' W 074°07'3 3.0
2017-Mar-16 20:33N 40°38' W 074°03'3 3.4
2017-Mar-16 19:33N 40°38' W 074°08'0 0.0
2017-Mar-16 18:34N 40°38' W 074°08'0 0.0
2017-Mar-16 17:33N 40°38' W 074°08'0 0.0
2017-Mar-16 16:33N 40°38' W 074°08'0 0.0
2017-Mar-16 15:33N 40°38' W 074°08'0 0.0
2017-Mar-16 14:33N 40°38' W 074°08'0 0.0
2017-Mar-16 13:33N 40°38' W 074°08'0 0.0
2017-Mar-16 12:33N 40°38' W 074°08'0 0.0
2017-Mar-16 11:33N 40°38' W 074°08'0 0.0
2017-Mar-16 10:33N 40°38' W 074°08'0 0.0
2017-Mar-16 09:33N 40°38' W 074°08'0 0.0
2017-Mar-16 08:33N 40°38' W 074°08'0 0.0
2017-Mar-16 07:31N 40°38' W 074°08'0 0.0
2017-Mar-16 06:33N 40°38' W 074°08'  

Dump ship's entire track history